sensor_id;sensor_type;location;lat;lon;timestamp;P1;durP1;ratioP1;P2;durP2;ratioP2
41293;SDS011;27037;52.010;4.446;2022-10-01T00:00:50;8.65;;;4.90;;
41293;SDS011;27037;52.010;4.446;2022-10-01T00:03:18;7.13;;;4.95;;
41293;SDS011;27037;52.010;4.446;2022-10-01T00:05:46;7.13;;;5.18;;
41293;SDS011;27037;52.010;4.446;2022-10-01T00:08:14;8.00;;;4.97;;
41293;SDS011;27037;52.010;4.446;2022-10-01T00:10:43;9.82;;;4.75;;
41293;SDS011;27037;52.010;4.446;2022-10-01T00:13:10;9.50;;;4.65;;
41293;SDS011;27037;52.010;4.446;2022-10-01T00:15:39;9.00;;;4.55;;
41293;SDS011;27037;52.010;4.446;2022-10-01T00:18:06;6.10;;;4.50;;
41293;SDS011;27037;52.010;4.446;2022-10-01T00:20:32;7.38;;;4.57;;
41293;SDS011;27037;52.010;4.446;2022-10-01T00:22:59;8.23;;;4.70;;
41293;SDS011;27037;52.010;4.446;2022-10-01T00:25:24;7.45;;;4.75;;
41293;SDS011;27037;52.010;4.446;2022-10-01T00:27:50;6.32;;;4.32;;
41293;SDS011;27037;52.010;4.446;2022-10-01T00:30:16;5.20;;;4.30;;
41293;SDS011;27037;52.010;4.446;2022-10-01T00:32:42;8.15;;;4.65;;
41293;SDS011;27037;52.010;4.446;2022-10-01T00:35:07;9.05;;;4.65;;
41293;SDS011;27037;52.010;4.446;2022-10-01T00:37:34;7.68;;;4.45;;
41293;SDS011;27037;52.010;4.446;2022-10-01T00:40:01;7.63;;;4.43;;
41293;SDS011;27037;52.010;4.446;2022-10-01T00:42:28;7.30;;;4.25;;
41293;SDS011;27037;52.010;4.446;2022-10-01T00:44:54;6.22;;;4.47;;
41293;SDS011;27037;52.010;4.446;2022-10-01T00:49:52;5.78;;;4.32;;
41293;SDS011;27037;52.010;4.446;2022-10-01T00:52:25;5.97;;;4.53;;
41293;SDS011;27037;52.010;4.446;2022-10-01T00:54:56;6.38;;;4.45;;
41293;SDS011;27037;52.010;4.446;2022-10-01T00:57:27;7.80;;;4.40;;
41293;SDS011;27037;52.010;4.446;2022-10-01T00:59:54;7.45;;;4.70;;
41293;SDS011;27037;52.010;4.446;2022-10-01T01:02:22;7.45;;;4.82;;
41293;SDS011;27037;52.010;4.446;2022-10-01T01:04:47;6.60;;;4.50;;
41293;SDS011;27037;52.010;4.446;2022-10-01T01:07:13;6.05;;;4.53;;
41293;SDS011;27037;52.010;4.446;2022-10-01T01:09:41;8.13;;;4.30;;
41293;SDS011;27037;52.010;4.446;2022-10-01T01:14:39;8.40;;;4.22;;
41293;SDS011;27037;52.010;4.446;2022-10-01T01:17:14;5.47;;;3.88;;
41293;SDS011;27037;52.010;4.446;2022-10-01T01:22:25;6.55;;;4.57;;
41293;SDS011;27037;52.010;4.446;2022-10-01T01:24:55;4.70;;;4.18;;
41293;SDS011;27037;52.010;4.446;2022-10-01T01:27:41;6.65;;;4.65;;
41293;SDS011;27037;52.010;4.446;2022-10-01T01:30:14;6.75;;;4.20;;
41293;SDS011;27037;52.010;4.446;2022-10-01T01:32:52;6.50;;;4.45;;
41293;SDS011;27037;52.010;4.446;2022-10-01T01:35:31;10.43;;;4.45;;
41293;SDS011;27037;52.010;4.446;2022-10-01T01:38:00;9.32;;;4.07;;
41293;SDS011;27037;52.010;4.446;2022-10-01T01:40:29;6.38;;;3.95;;
41293;SDS011;27037;52.010;4.446;2022-10-01T01:43:00;8.77;;;4.00;;
41293;SDS011;27037;52.010;4.446;2022-10-01T01:45:29;5.28;;;3.90;;
41293;SDS011;27037;52.010;4.446;2022-10-01T01:47:57;5.15;;;4.22;;
41293;SDS011;27037;52.010;4.446;2022-10-01T01:50:24;5.05;;;3.90;;
41293;SDS011;27037;52.010;4.446;2022-10-01T01:52:53;6.15;;;4.25;;
41293;SDS011;27037;52.010;4.446;2022-10-01T01:55:22;8.02;;;4.13;;
41293;SDS011;27037;52.010;4.446;2022-10-01T01:57:50;7.70;;;4.30;;
41293;SDS011;27037;52.010;4.446;2022-10-01T02:00:16;5.80;;;4.60;;
41293;SDS011;27037;52.010;4.446;2022-10-01T02:02:51;8.30;;;4.78;;
41293;SDS011;27037;52.010;4.446;2022-10-01T02:05:23;9.57;;;4.82;;
41293;SDS011;27037;52.010;4.446;2022-10-01T02:13:37;5.90;;;4.72;;
41293;SDS011;27037;52.010;4.446;2022-10-01T02:21:59;7.20;;;4.80;;
41293;SDS011;27037;52.010;4.446;2022-10-01T02:24:38;5.78;;;4.97;;
41293;SDS011;27037;52.010;4.446;2022-10-01T02:27:16;5.60;;;4.57;;
41293;SDS011;27037;52.010;4.446;2022-10-01T02:29:49;5.43;;;4.70;;
41293;SDS011;27037;52.010;4.446;2022-10-01T02:32:16;6.18;;;5.10;;
41293;SDS011;27037;52.010;4.446;2022-10-01T02:34:43;8.52;;;5.22;;
41293;SDS011;27037;52.010;4.446;2022-10-01T02:37:11;5.47;;;4.97;;
41293;SDS011;27037;52.010;4.446;2022-10-01T02:39:38;6.28;;;5.20;;
41293;SDS011;27037;52.010;4.446;2022-10-01T02:42:05;6.00;;;4.68;;
41293;SDS011;27037;52.010;4.446;2022-10-01T02:44:35;5.43;;;4.93;;
41293;SDS011;27037;52.010;4.446;2022-10-01T02:47:08;7.22;;;4.75;;
41293;SDS011;27037;52.010;4.446;2022-10-01T02:50:07;6.35;;;4.65;;
41293;SDS011;27037;52.010;4.446;2022-10-01T02:52:40;5.40;;;4.35;;
41293;SDS011;27037;52.010;4.446;2022-10-01T02:55:17;6.50;;;4.28;;
41293;SDS011;27037;52.010;4.446;2022-10-01T02:57:45;4.95;;;3.80;;
41293;SDS011;27037;52.010;4.446;2022-10-01T03:00:12;6.75;;;3.42;;
41293;SDS011;27037;52.010;4.446;2022-10-01T03:02:40;5.57;;;3.60;;
41293;SDS011;27037;52.010;4.446;2022-10-01T03:05:06;5.75;;;3.47;;
41293;SDS011;27037;52.010;4.446;2022-10-01T03:07:33;4.10;;;3.20;;
41293;SDS011;27037;52.010;4.446;2022-10-01T03:10:00;5.93;;;3.67;;
41293;SDS011;27037;52.010;4.446;2022-10-01T03:12:29;6.53;;;4.03;;
41293;SDS011;27037;52.010;4.446;2022-10-01T03:14:55;5.07;;;3.80;;
41293;SDS011;27037;52.010;4.446;2022-10-01T03:17:20;6.15;;;3.83;;
41293;SDS011;27037;52.010;4.446;2022-10-01T03:19:46;5.40;;;3.40;;
41293;SDS011;27037;52.010;4.446;2022-10-01T03:22:12;6.10;;;3.35;;
41293;SDS011;27037;52.010;4.446;2022-10-01T03:24:39;3.65;;;3.03;;
41293;SDS011;27037;52.010;4.446;2022-10-01T03:27:05;6.60;;;3.60;;
41293;SDS011;27037;52.010;4.446;2022-10-01T03:29:31;5.85;;;3.65;;
41293;SDS011;27037;52.010;4.446;2022-10-01T03:31:56;6.22;;;3.80;;
41293;SDS011;27037;52.010;4.446;2022-10-01T03:34:22;4.40;;;3.88;;
41293;SDS011;27037;52.010;4.446;2022-10-01T03:36:47;7.50;;;3.45;;
41293;SDS011;27037;52.010;4.446;2022-10-01T03:39:15;4.72;;;3.60;;
41293;SDS011;27037;52.010;4.446;2022-10-01T03:41:40;5.20;;;3.80;;
41293;SDS011;27037;52.010;4.446;2022-10-01T03:44:06;4.90;;;4.10;;
41293;SDS011;27037;52.010;4.446;2022-10-01T03:46:31;9.07;;;4.15;;
41293;SDS011;27037;52.010;4.446;2022-10-01T03:48:57;6.63;;;3.78;;
41293;SDS011;27037;52.010;4.446;2022-10-01T03:51:24;4.07;;;3.47;;
41293;SDS011;27037;52.010;4.446;2022-10-01T03:53:54;7.35;;;4.13;;
41293;SDS011;27037;52.010;4.446;2022-10-01T03:56:23;10.55;;;3.75;;
41293;SDS011;27037;52.010;4.446;2022-10-01T03:58:49;7.13;;;3.78;;
41293;SDS011;27037;52.010;4.446;2022-10-01T04:01:15;5.57;;;3.90;;
41293;SDS011;27037;52.010;4.446;2022-10-01T04:03:41;7.93;;;4.22;;
41293;SDS011;27037;52.010;4.446;2022-10-01T04:06:07;9.32;;;3.92;;
41293;SDS011;27037;52.010;4.446;2022-10-01T04:08:33;9.95;;;3.67;;
41293;SDS011;27037;52.010;4.446;2022-10-01T04:10:59;4.30;;;3.15;;
41293;SDS011;27037;52.010;4.446;2022-10-01T04:13:25;6.03;;;3.17;;
41293;SDS011;27037;52.010;4.446;2022-10-01T04:15:52;5.63;;;3.20;;
41293;SDS011;27037;52.010;4.446;2022-10-01T04:18:18;4.75;;;3.30;;
41293;SDS011;27037;52.010;4.446;2022-10-01T04:20:45;6.28;;;3.25;;
41293;SDS011;27037;52.010;4.446;2022-10-01T04:23:11;8.90;;;3.10;;
41293;SDS011;27037;52.010;4.446;2022-10-01T04:25:37;5.43;;;2.80;;
41293;SDS011;27037;52.010;4.446;2022-10-01T04:28:04;8.32;;;2.97;;
41293;SDS011;27037;52.010;4.446;2022-10-01T04:30:32;7.25;;;2.92;;
41293;SDS011;27037;52.010;4.446;2022-10-01T04:32:59;5.47;;;3.00;;
41293;SDS011;27037;52.010;4.446;2022-10-01T04:35:26;6.22;;;2.58;;
41293;SDS011;27037;52.010;4.446;2022-10-01T04:37:57;6.38;;;3.00;;
41293;SDS011;27037;52.010;4.446;2022-10-01T04:40:27;7.75;;;2.88;;
41293;SDS011;27037;52.010;4.446;2022-10-01T04:42:58;6.70;;;2.75;;
41293;SDS011;27037;52.010;4.446;2022-10-01T04:45:24;7.70;;;3.10;;
41293;SDS011;27037;52.010;4.446;2022-10-01T04:47:51;6.18;;;2.63;;
41293;SDS011;27037;52.010;4.446;2022-10-01T04:50:19;7.65;;;3.13;;
41293;SDS011;27037;52.010;4.446;2022-10-01T04:52:46;8.75;;;2.80;;
41293;SDS011;27037;52.010;4.446;2022-10-01T04:55:12;10.50;;;3.10;;
41293;SDS011;27037;52.010;4.446;2022-10-01T04:57:38;9.45;;;3.03;;
41293;SDS011;27037;52.010;4.446;2022-10-01T05:00:05;7.63;;;2.80;;
41293;SDS011;27037;52.010;4.446;2022-10-01T05:02:33;12.13;;;3.30;;
41293;SDS011;27037;52.010;4.446;2022-10-01T05:05:04;12.63;;;2.92;;
41293;SDS011;27037;52.010;4.446;2022-10-01T05:07:31;11.32;;;3.10;;
41293;SDS011;27037;52.010;4.446;2022-10-01T05:09:58;9.82;;;2.95;;
41293;SDS011;27037;52.010;4.446;2022-10-01T05:12:25;13.13;;;3.60;;
41293;SDS011;27037;52.010;4.446;2022-10-01T05:14:52;10.30;;;3.33;;
41293;SDS011;27037;52.010;4.446;2022-10-01T05:17:18;11.85;;;3.45;;
41293;SDS011;27037;52.010;4.446;2022-10-01T05:19:47;12.77;;;3.30;;
41293;SDS011;27037;52.010;4.446;2022-10-01T05:22:14;9.45;;;3.35;;
41293;SDS011;27037;52.010;4.446;2022-10-01T05:24:40;11.23;;;3.00;;
41293;SDS011;27037;52.010;4.446;2022-10-01T05:27:07;10.95;;;3.15;;
41293;SDS011;27037;52.010;4.446;2022-10-01T05:29:37;12.90;;;3.50;;
41293;SDS011;27037;52.010;4.446;2022-10-01T05:32:06;20.40;;;3.83;;
41293;SDS011;27037;52.010;4.446;2022-10-01T05:34:32;15.32;;;3.47;;
41293;SDS011;27037;52.010;4.446;2022-10-01T05:36:58;12.10;;;3.70;;
41293;SDS011;27037;52.010;4.446;2022-10-01T05:39:23;11.50;;;3.60;;
41293;SDS011;27037;52.010;4.446;2022-10-01T05:41:49;14.23;;;3.53;;
41293;SDS011;27037;52.010;4.446;2022-10-01T05:44:15;12.88;;;3.63;;
41293;SDS011;27037;52.010;4.446;2022-10-01T05:46:40;11.75;;;3.80;;
41293;SDS011;27037;52.010;4.446;2022-10-01T05:49:07;16.83;;;4.00;;
41293;SDS011;27037;52.010;4.446;2022-10-01T05:51:34;12.68;;;3.72;;
41293;SDS011;27037;52.010;4.446;2022-10-01T05:54:00;11.35;;;3.28;;
41293;SDS011;27037;52.010;4.446;2022-10-01T05:56:27;11.25;;;3.42;;
41293;SDS011;27037;52.010;4.446;2022-10-01T05:58:53;11.35;;;3.40;;
41293;SDS011;27037;52.010;4.446;2022-10-01T06:01:19;13.63;;;3.63;;
41293;SDS011;27037;52.010;4.446;2022-10-01T06:03:45;11.50;;;3.35;;
41293;SDS011;27037;52.010;4.446;2022-10-01T06:06:14;10.93;;;3.85;;
41293;SDS011;27037;52.010;4.446;2022-10-01T06:08:39;12.65;;;3.25;;
41293;SDS011;27037;52.010;4.446;2022-10-01T06:11:05;12.38;;;3.30;;
41293;SDS011;27037;52.010;4.446;2022-10-01T06:13:30;21.63;;;3.38;;
41293;SDS011;27037;52.010;4.446;2022-10-01T06:15:57;13.85;;;3.63;;
41293;SDS011;27037;52.010;4.446;2022-10-01T06:18:22;11.98;;;3.65;;
41293;SDS011;27037;52.010;4.446;2022-10-01T06:20:49;15.35;;;3.40;;
41293;SDS011;27037;52.010;4.446;2022-10-01T06:23:14;12.85;;;3.40;;
41293;SDS011;27037;52.010;4.446;2022-10-01T06:25:40;17.38;;;3.53;;
41293;SDS011;27037;52.010;4.446;2022-10-01T06:28:09;13.40;;;3.92;;
41293;SDS011;27037;52.010;4.446;2022-10-01T06:30:37;14.02;;;3.63;;
41293;SDS011;27037;52.010;4.446;2022-10-01T06:33:07;13.23;;;3.58;;
41293;SDS011;27037;52.010;4.446;2022-10-01T06:35:34;13.07;;;3.30;;
41293;SDS011;27037;52.010;4.446;2022-10-01T06:38:04;16.27;;;3.65;;
41293;SDS011;27037;52.010;4.446;2022-10-01T06:40:30;22.33;;;3.65;;
41293;SDS011;27037;52.010;4.446;2022-10-01T06:42:56;15.07;;;3.42;;
41293;SDS011;27037;52.010;4.446;2022-10-01T06:45:23;18.83;;;3.40;;
41293;SDS011;27037;52.010;4.446;2022-10-01T06:48:08;14.68;;;3.13;;
41293;SDS011;27037;52.010;4.446;2022-10-01T06:50:38;13.50;;;2.92;;
41293;SDS011;27037;52.010;4.446;2022-10-01T06:53:05;19.15;;;3.13;;
41293;SDS011;27037;52.010;4.446;2022-10-01T06:55:31;17.00;;;2.90;;
41293;SDS011;27037;52.010;4.446;2022-10-01T06:57:59;19.48;;;3.10;;
41293;SDS011;27037;52.010;4.446;2022-10-01T07:00:27;14.20;;;2.75;;
41293;SDS011;27037;52.010;4.446;2022-10-01T07:02:54;16.38;;;3.13;;
41293;SDS011;27037;52.010;4.446;2022-10-01T07:05:21;20.10;;;3.17;;
41293;SDS011;27037;52.010;4.446;2022-10-01T07:07:47;20.63;;;3.40;;
41293;SDS011;27037;52.010;4.446;2022-10-01T07:10:13;19.50;;;3.08;;
41293;SDS011;27037;52.010;4.446;2022-10-01T07:12:39;15.30;;;2.83;;
41293;SDS011;27037;52.010;4.446;2022-10-01T07:15:06;19.33;;;2.50;;
41293;SDS011;27037;52.010;4.446;2022-10-01T07:17:33;15.43;;;2.80;;
41293;SDS011;27037;52.010;4.446;2022-10-01T07:20:06;15.10;;;2.80;;
41293;SDS011;27037;52.010;4.446;2022-10-01T07:22:32;21.52;;;2.97;;
41293;SDS011;27037;52.010;4.446;2022-10-01T07:24:58;19.42;;;2.92;;
41293;SDS011;27037;52.010;4.446;2022-10-01T07:27:23;17.33;;;2.75;;
41293;SDS011;27037;52.010;4.446;2022-10-01T07:29:50;19.90;;;3.00;;
41293;SDS011;27037;52.010;4.446;2022-10-01T07:32:17;18.20;;;2.60;;
41293;SDS011;27037;52.010;4.446;2022-10-01T07:34:42;21.98;;;2.65;;
41293;SDS011;27037;52.010;4.446;2022-10-01T07:37:08;20.05;;;2.60;;
41293;SDS011;27037;52.010;4.446;2022-10-01T07:39:35;21.63;;;2.65;;
41293;SDS011;27037;52.010;4.446;2022-10-01T07:42:01;15.70;;;2.38;;
41293;SDS011;27037;52.010;4.446;2022-10-01T07:44:27;12.85;;;2.10;;
41293;SDS011;27037;52.010;4.446;2022-10-01T07:46:55;12.65;;;2.17;;
41293;SDS011;27037;52.010;4.446;2022-10-01T07:49:21;13.93;;;2.30;;
41293;SDS011;27037;52.010;4.446;2022-10-01T07:51:49;25.00;;;2.90;;
41293;SDS011;27037;52.010;4.446;2022-10-01T07:54:15;19.20;;;2.22;;
41293;SDS011;27037;52.010;4.446;2022-10-01T07:56:40;17.98;;;2.60;;
41293;SDS011;27037;52.010;4.446;2022-10-01T07:59:06;21.60;;;2.30;;
41293;SDS011;27037;52.010;4.446;2022-10-01T08:01:34;16.25;;;2.10;;
41293;SDS011;27037;52.010;4.446;2022-10-01T08:04:00;14.55;;;2.03;;
41293;SDS011;27037;52.010;4.446;2022-10-01T08:06:46;13.90;;;2.17;;
41293;SDS011;27037;52.010;4.446;2022-10-01T08:09:13;14.02;;;2.30;;
41293;SDS011;27037;52.010;4.446;2022-10-01T08:11:39;17.90;;;2.05;;
41293;SDS011;27037;52.010;4.446;2022-10-01T08:14:05;18.05;;;2.60;;
41293;SDS011;27037;52.010;4.446;2022-10-01T08:16:31;19.65;;;2.78;;
41293;SDS011;27037;52.010;4.446;2022-10-01T08:18:58;12.32;;;2.15;;
41293;SDS011;27037;52.010;4.446;2022-10-01T08:21:24;12.75;;;2.25;;
41293;SDS011;27037;52.010;4.446;2022-10-01T08:23:52;19.17;;;2.30;;
41293;SDS011;27037;52.010;4.446;2022-10-01T08:26:18;20.38;;;2.47;;
41293;SDS011;27037;52.010;4.446;2022-10-01T08:28:43;11.98;;;2.15;;
41293;SDS011;27037;52.010;4.446;2022-10-01T08:31:09;14.98;;;2.88;;
41293;SDS011;27037;52.010;4.446;2022-10-01T08:33:35;17.17;;;2.22;;
41293;SDS011;27037;52.010;4.446;2022-10-01T08:36:02;19.85;;;2.45;;
41293;SDS011;27037;52.010;4.446;2022-10-01T08:38:32;18.63;;;2.47;;
41293;SDS011;27037;52.010;4.446;2022-10-01T08:40:59;18.08;;;2.10;;
41293;SDS011;27037;52.010;4.446;2022-10-01T08:43:36;14.23;;;2.58;;
41293;SDS011;27037;52.010;4.446;2022-10-01T08:46:05;15.10;;;2.65;;
41293;SDS011;27037;52.010;4.446;2022-10-01T08:51:22;16.10;;;2.10;;
41293;SDS011;27037;52.010;4.446;2022-10-01T08:54:06;22.42;;;2.65;;
41293;SDS011;27037;52.010;4.446;2022-10-01T08:56:42;13.93;;;2.22;;
41293;SDS011;27037;52.010;4.446;2022-10-01T09:02:24;13.80;;;2.38;;
41293;SDS011;27037;52.010;4.446;2022-10-01T09:05:04;20.10;;;2.50;;
41293;SDS011;27037;52.010;4.446;2022-10-01T09:10:34;17.67;;;2.58;;
41293;SDS011;27037;52.010;4.446;2022-10-01T09:20:58;20.98;;;2.80;;
41293;SDS011;27037;52.010;4.446;2022-10-01T09:23:27;17.15;;;2.70;;
41293;SDS011;27037;52.010;4.446;2022-10-01T09:25:55;13.77;;;2.53;;
41293;SDS011;27037;52.010;4.446;2022-10-01T09:28:26;19.95;;;2.60;;
41293;SDS011;27037;52.010;4.446;2022-10-01T09:33:37;15.57;;;2.55;;
41293;SDS011;27037;52.010;4.446;2022-10-01T09:36:14;16.13;;;2.53;;
41293;SDS011;27037;52.010;4.446;2022-10-01T09:41:37;16.10;;;2.60;;
41293;SDS011;27037;52.010;4.446;2022-10-01T09:44:03;12.35;;;1.83;;
41293;SDS011;27037;52.010;4.446;2022-10-01T09:46:29;16.27;;;2.35;;
41293;SDS011;27037;52.010;4.446;2022-10-01T09:51:35;15.32;;;2.65;;
41293;SDS011;27037;52.010;4.446;2022-10-01T09:57:00;15.30;;;2.28;;
41293;SDS011;27037;52.010;4.446;2022-10-01T09:59:35;13.93;;;2.03;;
41293;SDS011;27037;52.010;4.446;2022-10-01T10:02:56;15.15;;;2.80;;
41293;SDS011;27037;52.010;4.446;2022-10-01T10:05:05;13.52;;;2.10;;
41293;SDS011;27037;52.010;4.446;2022-10-01T10:07:33;12.52;;;2.60;;
41293;SDS011;27037;52.010;4.446;2022-10-01T10:12:53;16.23;;;2.70;;
41293;SDS011;27037;52.010;4.446;2022-10-01T10:15:21;13.43;;;2.33;;
41293;SDS011;27037;52.010;4.446;2022-10-01T10:17:50;13.45;;;2.15;;
41293;SDS011;27037;52.010;4.446;2022-10-01T10:20:22;12.50;;;2.03;;
41293;SDS011;27037;52.010;4.446;2022-10-01T10:22:51;17.23;;;2.45;;
41293;SDS011;27037;52.010;4.446;2022-10-01T10:25:21;16.70;;;2.60;;
41293;SDS011;27037;52.010;4.446;2022-10-01T10:27:49;14.38;;;2.00;;
41293;SDS011;27037;52.010;4.446;2022-10-01T10:30:19;14.27;;;2.28;;
41293;SDS011;27037;52.010;4.446;2022-10-01T10:32:48;14.82;;;1.90;;
41293;SDS011;27037;52.010;4.446;2022-10-01T10:35:15;15.73;;;2.70;;
41293;SDS011;27037;52.010;4.446;2022-10-01T10:37:50;17.45;;;2.40;;
41293;SDS011;27037;52.010;4.446;2022-10-01T10:40:18;19.60;;;2.50;;
41293;SDS011;27037;52.010;4.446;2022-10-01T10:42:49;11.00;;;2.30;;
41293;SDS011;27037;52.010;4.446;2022-10-01T10:45:18;14.07;;;2.38;;
41293;SDS011;27037;52.010;4.446;2022-10-01T10:47:48;17.30;;;2.50;;
41293;SDS011;27037;52.010;4.446;2022-10-01T10:50:58;19.15;;;2.38;;
41293;SDS011;27037;52.010;4.446;2022-10-01T10:55:52;16.38;;;3.03;;
41293;SDS011;27037;52.010;4.446;2022-10-01T10:58:22;11.85;;;2.10;;
41293;SDS011;27037;52.010;4.446;2022-10-01T11:00:49;14.38;;;2.30;;
41293;SDS011;27037;52.010;4.446;2022-10-01T11:03:21;14.40;;;2.58;;
41293;SDS011;27037;52.010;4.446;2022-10-01T11:05:50;13.52;;;2.20;;
41293;SDS011;27037;52.010;4.446;2022-10-01T11:08:24;17.02;;;2.60;;
41293;SDS011;27037;52.010;4.446;2022-10-01T11:11:12;17.02;;;2.67;;
41293;SDS011;27037;52.010;4.446;2022-10-01T11:14:14;12.20;;;2.63;;
41293;SDS011;27037;52.010;4.446;2022-10-01T11:20:27;16.70;;;3.08;;
41293;SDS011;27037;52.010;4.446;2022-10-01T11:31:36;13.52;;;2.17;;
41293;SDS011;27037;52.010;4.446;2022-10-01T11:36:48;10.70;;;2.00;;
41293;SDS011;27037;52.010;4.446;2022-10-01T11:39:17;13.23;;;2.13;;
41293;SDS011;27037;52.010;4.446;2022-10-01T11:47:30;13.15;;;2.30;;
41293;SDS011;27037;52.010;4.446;2022-10-01T11:50:07;13.27;;;2.33;;
41293;SDS011;27037;52.010;4.446;2022-10-01T11:55:25;15.10;;;2.10;;
41293;SDS011;27037;52.010;4.446;2022-10-01T12:01:29;12.52;;;2.30;;
41293;SDS011;27037;52.010;4.446;2022-10-01T12:04:04;18.90;;;2.63;;
41293;SDS011;27037;52.010;4.446;2022-10-01T12:06:50;14.93;;;2.55;;
41293;SDS011;27037;52.010;4.446;2022-10-01T12:09:31;13.75;;;2.08;;
41293;SDS011;27037;52.010;4.446;2022-10-01T12:12:25;16.23;;;2.15;;
41293;SDS011;27037;52.010;4.446;2022-10-01T12:14:57;18.80;;;2.63;;
41293;SDS011;27037;52.010;4.446;2022-10-01T12:19:56;14.80;;;2.50;;
41293;SDS011;27037;52.010;4.446;2022-10-01T12:22:26;18.05;;;3.00;;
41293;SDS011;27037;52.010;4.446;2022-10-01T12:24:55;16.80;;;2.50;;
41293;SDS011;27037;52.010;4.446;2022-10-01T12:30:28;11.77;;;1.92;;
41293;SDS011;27037;52.010;4.446;2022-10-01T12:36:33;16.95;;;2.67;;
41293;SDS011;27037;52.010;4.446;2022-10-01T12:47:48;17.67;;;2.67;;
41293;SDS011;27037;52.010;4.446;2022-10-01T12:53:14;16.85;;;2.95;;
41293;SDS011;27037;52.010;4.446;2022-10-01T13:07:18;14.82;;;2.65;;
41293;SDS011;27037;52.010;4.446;2022-10-01T13:10:13;19.27;;;2.80;;
41293;SDS011;27037;52.010;4.446;2022-10-01T13:12:59;13.27;;;1.98;;
41293;SDS011;27037;52.010;4.446;2022-10-01T13:15:33;13.77;;;2.17;;
41293;SDS011;27037;52.010;4.446;2022-10-01T13:23:37;15.55;;;2.47;;
41293;SDS011;27037;52.010;4.446;2022-10-01T13:26:19;16.80;;;2.65;;
41293;SDS011;27037;52.010;4.446;2022-10-01T13:31:50;14.57;;;2.72;;
41293;SDS011;27037;52.010;4.446;2022-10-01T13:34:37;11.18;;;2.42;;
41293;SDS011;27037;52.010;4.446;2022-10-01T13:37:12;14.60;;;2.42;;
41293;SDS011;27037;52.010;4.446;2022-10-01T13:39:40;12.10;;;2.38;;
41293;SDS011;27037;52.010;4.446;2022-10-01T13:42:25;14.25;;;2.20;;
41293;SDS011;27037;52.010;4.446;2022-10-01T13:45:20;16.92;;;2.53;;
41293;SDS011;27037;52.010;4.446;2022-10-01T13:47:46;15.70;;;2.45;;
41293;SDS011;27037;52.010;4.446;2022-10-01T13:52:48;20.25;;;2.53;;
41293;SDS011;27037;52.010;4.446;2022-10-01T13:55:23;15.43;;;2.78;;
41293;SDS011;27037;52.010;4.446;2022-10-01T13:58:01;13.35;;;2.42;;
41293;SDS011;27037;52.010;4.446;2022-10-01T14:00:31;14.75;;;2.50;;
41293;SDS011;27037;52.010;4.446;2022-10-01T14:08:13;12.52;;;2.40;;
41293;SDS011;27037;52.010;4.446;2022-10-01T14:11:08;19.48;;;3.20;;
41293;SDS011;27037;52.010;4.446;2022-10-01T14:14:12;15.13;;;2.47;;
41293;SDS011;27037;52.010;4.446;2022-10-01T14:17:03;16.25;;;2.53;;
41293;SDS011;27037;52.010;4.446;2022-10-01T14:19:30;15.00;;;2.65;;
41293;SDS011;27037;52.010;4.446;2022-10-01T14:30:38;15.00;;;2.63;;
41293;SDS011;27037;52.010;4.446;2022-10-01T14:36:13;14.52;;;2.70;;
41293;SDS011;27037;52.010;4.446;2022-10-01T14:38:40;9.40;;;1.83;;
41293;SDS011;27037;52.010;4.446;2022-10-01T14:41:13;13.40;;;2.58;;
41293;SDS011;27037;52.010;4.446;2022-10-01T14:43:44;16.58;;;2.17;;
41293;SDS011;27037;52.010;4.446;2022-10-01T14:46:12;12.18;;;2.47;;
41293;SDS011;27037;52.010;4.446;2022-10-01T14:48:40;19.75;;;3.10;;
41293;SDS011;27037;52.010;4.446;2022-10-01T14:51:06;18.20;;;2.63;;
41293;SDS011;27037;52.010;4.446;2022-10-01T14:53:49;10.30;;;2.08;;
41293;SDS011;27037;52.010;4.446;2022-10-01T14:56:17;14.85;;;2.15;;
41293;SDS011;27037;52.010;4.446;2022-10-01T14:58:51;12.25;;;2.20;;
41293;SDS011;27037;52.010;4.446;2022-10-01T15:01:21;12.73;;;2.03;;
41293;SDS011;27037;52.010;4.446;2022-10-01T15:03:49;11.35;;;2.00;;
41293;SDS011;27037;52.010;4.446;2022-10-01T15:06:16;11.90;;;2.03;;
41293;SDS011;27037;52.010;4.446;2022-10-01T15:08:45;10.73;;;1.95;;
41293;SDS011;27037;52.010;4.446;2022-10-01T15:11:15;13.30;;;2.35;;
41293;SDS011;27037;52.010;4.446;2022-10-01T15:13:53;16.55;;;2.45;;
41293;SDS011;27037;52.010;4.446;2022-10-01T15:16:25;11.05;;;2.17;;
41293;SDS011;27037;52.010;4.446;2022-10-01T15:18:53;12.98;;;2.40;;
41293;SDS011;27037;52.010;4.446;2022-10-01T15:21:37;17.77;;;3.05;;
41293;SDS011;27037;52.010;4.446;2022-10-01T15:24:21;17.15;;;2.47;;
41293;SDS011;27037;52.010;4.446;2022-10-01T15:26:50;15.15;;;2.30;;
41293;SDS011;27037;52.010;4.446;2022-10-01T15:29:17;16.35;;;2.63;;
41293;SDS011;27037;52.010;4.446;2022-10-01T15:31:44;13.43;;;2.00;;
41293;SDS011;27037;52.010;4.446;2022-10-01T15:34:11;14.07;;;2.42;;
41293;SDS011;27037;52.010;4.446;2022-10-01T15:36:39;18.00;;;2.63;;
41293;SDS011;27037;52.010;4.446;2022-10-01T15:41:54;14.05;;;2.30;;
41293;SDS011;27037;52.010;4.446;2022-10-01T15:52:26;13.70;;;2.40;;
41293;SDS011;27037;52.010;4.446;2022-10-01T15:55:15;11.60;;;2.10;;
41293;SDS011;27037;52.010;4.446;2022-10-01T15:58:24;13.65;;;2.83;;
41293;SDS011;27037;52.010;4.446;2022-10-01T16:03:19;15.30;;;2.65;;
41293;SDS011;27037;52.010;4.446;2022-10-01T16:05:49;15.70;;;2.60;;
41293;SDS011;27037;52.010;4.446;2022-10-01T16:08:18;18.13;;;2.60;;
41293;SDS011;27037;52.010;4.446;2022-10-01T16:13:38;10.95;;;2.20;;
41293;SDS011;27037;52.010;4.446;2022-10-01T16:18:40;16.65;;;2.85;;
41293;SDS011;27037;52.010;4.446;2022-10-01T16:21:07;18.88;;;2.75;;
41293;SDS011;27037;52.010;4.446;2022-10-01T16:23:44;13.48;;;2.33;;
41293;SDS011;27037;52.010;4.446;2022-10-01T16:28:59;15.27;;;2.40;;
41293;SDS011;27037;52.010;4.446;2022-10-01T16:31:30;12.35;;;2.08;;
41293;SDS011;27037;52.010;4.446;2022-10-01T16:33:56;17.25;;;3.28;;
41293;SDS011;27037;52.010;4.446;2022-10-01T16:36:22;17.40;;;2.70;;
41293;SDS011;27037;52.010;4.446;2022-10-01T16:38:52;16.42;;;3.13;;
41293;SDS011;27037;52.010;4.446;2022-10-01T16:41:19;16.25;;;2.88;;
41293;SDS011;27037;52.010;4.446;2022-10-01T16:43:49;14.05;;;2.55;;
41293;SDS011;27037;52.010;4.446;2022-10-01T16:46:16;16.88;;;2.70;;
41293;SDS011;27037;52.010;4.446;2022-10-01T16:48:42;14.55;;;3.00;;
41293;SDS011;27037;52.010;4.446;2022-10-01T16:51:13;16.02;;;2.65;;
41293;SDS011;27037;52.010;4.446;2022-10-01T16:53:38;14.07;;;2.30;;
41293;SDS011;27037;52.010;4.446;2022-10-01T16:56:06;20.10;;;3.15;;
41293;SDS011;27037;52.010;4.446;2022-10-01T16:58:36;18.45;;;2.90;;
41293;SDS011;27037;52.010;4.446;2022-10-01T17:01:06;19.27;;;2.70;;
41293;SDS011;27037;52.010;4.446;2022-10-01T17:03:32;15.95;;;2.55;;
41293;SDS011;27037;52.010;4.446;2022-10-01T17:05:59;16.77;;;2.40;;
41293;SDS011;27037;52.010;4.446;2022-10-01T17:08:24;14.70;;;2.65;;
41293;SDS011;27037;52.010;4.446;2022-10-01T17:10:51;19.75;;;3.10;;
41293;SDS011;27037;52.010;4.446;2022-10-01T17:13:22;17.42;;;2.55;;
41293;SDS011;27037;52.010;4.446;2022-10-01T17:15:49;14.55;;;2.72;;
41293;SDS011;27037;52.010;4.446;2022-10-01T17:18:15;17.13;;;3.00;;
41293;SDS011;27037;52.010;4.446;2022-10-01T17:20:41;17.80;;;2.80;;
41293;SDS011;27037;52.010;4.446;2022-10-01T17:23:08;18.08;;;3.03;;
41293;SDS011;27037;52.010;4.446;2022-10-01T17:25:35;13.57;;;2.72;;
41293;SDS011;27037;52.010;4.446;2022-10-01T17:28:04;19.67;;;2.67;;
41293;SDS011;27037;52.010;4.446;2022-10-01T17:30:32;15.25;;;2.53;;
41293;SDS011;27037;52.010;4.446;2022-10-01T17:32:59;16.25;;;2.50;;
41293;SDS011;27037;52.010;4.446;2022-10-01T17:35:25;12.77;;;2.58;;